sensor_id;sensor_type;location;lat;lon;timestamp;P1;durP1;ratioP1;P2;durP2;ratioP2
20894;SDS011;10607;42.066;24.742;2023-02-01T00:01:05;5.13;;;2.47;;
20894;SDS011;10607;42.066;24.742;2023-02-01T00:03:30;2.13;;;1.90;;
20894;SDS011;10607;42.066;24.742;2023-02-01T00:05:56;3.23;;;2.70;;
20894;SDS011;10607;42.066;24.742;2023-02-01T00:08:22;3.00;;;2.20;;
20894;SDS011;10607;42.066;24.742;2023-02-01T00:10:47;3.30;;;2.10;;
20894;SDS011;10607;42.066;24.742;2023-02-01T00:13:12;3.37;;;2.00;;
20894;SDS011;10607;42.066;24.742;2023-02-01T00:15:38;4.10;;;2.00;;
20894;SDS011;10607;42.066;24.742;2023-02-01T00:18:03;4.73;;;2.17;;
20894;SDS011;10607;42.066;24.742;2023-02-01T00:20:28;4.53;;;2.80;;
20894;SDS011;10607;42.066;24.742;2023-02-01T00:22:54;3.50;;;2.30;;
20894;SDS011;10607;42.066;24.742;2023-02-01T00:25:19;3.10;;;2.20;;
20894;SDS011;10607;42.066;24.742;2023-02-01T00:27:48;3.37;;;2.13;;
20894;SDS011;10607;42.066;24.742;2023-02-01T00:30:13;2.70;;;2.10;;
20894;SDS011;10607;42.066;24.742;2023-02-01T00:32:38;2.60;;;2.37;;
20894;SDS011;10607;42.066;24.742;2023-02-01T00:35:04;2.67;;;2.40;;
20894;SDS011;10607;42.066;24.742;2023-02-01T00:37:29;2.93;;;2.17;;
20894;SDS011;10607;42.066;24.742;2023-02-01T00:39:54;3.67;;;2.10;;
20894;SDS011;10607;42.066;24.742;2023-02-01T00:42:20;4.23;;;2.17;;
20894;SDS011;10607;42.066;24.742;2023-02-01T00:44:46;2.83;;;2.10;;
20894;SDS011;10607;42.066;24.742;2023-02-01T00:47:11;3.30;;;2.17;;
20894;SDS011;10607;42.066;24.742;2023-02-01T00:49:37;3.90;;;2.00;;
20894;SDS011;10607;42.066;24.742;2023-02-01T00:52:02;4.67;;;2.33;;
20894;SDS011;10607;42.066;24.742;2023-02-01T00:54:27;2.10;;;1.90;;
20894;SDS011;10607;42.066;24.742;2023-02-01T00:56:53;2.93;;;2.23;;
20894;SDS011;10607;42.066;24.742;2023-02-01T00:59:19;2.30;;;2.03;;
20894;SDS011;10607;42.066;24.742;2023-02-01T01:01:45;3.53;;;2.10;;
20894;SDS011;10607;42.066;24.742;2023-02-01T01:04:10;3.90;;;1.60;;
20894;SDS011;10607;42.066;24.742;2023-02-01T01:06:35;2.73;;;2.17;;
20894;SDS011;10607;42.066;24.742;2023-02-01T01:09:02;2.93;;;2.43;;
20894;SDS011;10607;42.066;24.742;2023-02-01T01:11:29;2.70;;;2.00;;
20894;SDS011;10607;42.066;24.742;2023-02-01T01:13:55;2.03;;;1.83;;
20894;SDS011;10607;42.066;24.742;2023-02-01T01:16:22;4.00;;;2.77;;
20894;SDS011;10607;42.066;24.742;2023-02-01T01:18:47;3.10;;;2.20;;
20894;SDS011;10607;42.066;24.742;2023-02-01T01:21:13;2.47;;;2.20;;
20894;SDS011;10607;42.066;24.742;2023-02-01T01:23:39;3.53;;;2.10;;
20894;SDS011;10607;42.066;24.742;2023-02-01T01:26:05;3.57;;;2.13;;
20894;SDS011;10607;42.066;24.742;2023-02-01T01:28:30;3.17;;;2.30;;
20894;SDS011;10607;42.066;24.742;2023-02-01T01:30:56;2.60;;;2.13;;
20894;SDS011;10607;42.066;24.742;2023-02-01T01:33:21;4.67;;;2.33;;
20894;SDS011;10607;42.066;24.742;2023-02-01T01:35:46;2.73;;;2.10;;
20894;SDS011;10607;42.066;24.742;2023-02-01T01:38:11;7.33;;;1.80;;
20894;SDS011;10607;42.066;24.742;2023-02-01T01:40:37;2.50;;;2.27;;
20894;SDS011;10607;42.066;24.742;2023-02-01T01:43:02;2.60;;;2.20;;
20894;SDS011;10607;42.066;24.742;2023-02-01T01:45:31;3.03;;;1.93;;
20894;SDS011;10607;42.066;24.742;2023-02-01T01:50:30;2.50;;;1.77;;
20894;SDS011;10607;42.066;24.742;2023-02-01T01:52:56;5.27;;;2.20;;
20894;SDS011;10607;42.066;24.742;2023-02-01T01:55:22;3.30;;;2.30;;
20894;SDS011;10607;42.066;24.742;2023-02-01T01:57:57;2.57;;;2.37;;
20894;SDS011;10607;42.066;24.742;2023-02-01T02:00:24;3.20;;;1.90;;
20894;SDS011;10607;42.066;24.742;2023-02-01T02:02:52;2.27;;;1.90;;
20894;SDS011;10607;42.066;24.742;2023-02-01T02:05:18;3.50;;;1.90;;
20894;SDS011;10607;42.066;24.742;2023-02-01T02:07:45;2.13;;;1.93;;
20894;SDS011;10607;42.066;24.742;2023-02-01T02:10:11;2.03;;;1.87;;
20894;SDS011;10607;42.066;24.742;2023-02-01T02:12:40;2.23;;;2.00;;
20894;SDS011;10607;42.066;24.742;2023-02-01T02:15:07;3.30;;;2.30;;
20894;SDS011;10607;42.066;24.742;2023-02-01T02:17:36;2.30;;;1.87;;
20894;SDS011;10607;42.066;24.742;2023-02-01T02:32:52;1.93;;;1.83;;
20894;SDS011;10607;42.066;24.742;2023-02-01T02:38:01;3.57;;;2.17;;
20894;SDS011;10607;42.066;24.742;2023-02-01T02:40:38;2.40;;;2.10;;
20894;SDS011;10607;42.066;24.742;2023-02-01T02:43:22;4.03;;;2.30;;
20894;SDS011;10607;42.066;24.742;2023-02-01T02:49:11;4.13;;;2.07;;
20894;SDS011;10607;42.066;24.742;2023-02-01T02:54:23;2.37;;;2.10;;
20894;SDS011;10607;42.066;24.742;2023-02-01T02:57:08;3.03;;;2.70;;
20894;SDS011;10607;42.066;24.742;2023-02-01T02:59:53;2.57;;;2.37;;
20894;SDS011;10607;42.066;24.742;2023-02-01T03:02:39;4.57;;;2.40;;
20894;SDS011;10607;42.066;24.742;2023-02-01T03:05:23;4.20;;;2.63;;
20894;SDS011;10607;42.066;24.742;2023-02-01T03:13:08;3.57;;;2.60;;
20894;SDS011;10607;42.066;24.742;2023-02-01T03:15:36;5.10;;;3.13;;
20894;SDS011;10607;42.066;24.742;2023-02-01T03:18:04;3.10;;;2.80;;
20894;SDS011;10607;42.066;24.742;2023-02-01T03:20:32;3.03;;;2.73;;
20894;SDS011;10607;42.066;24.742;2023-02-01T03:22:57;3.77;;;2.73;;
20894;SDS011;10607;42.066;24.742;2023-02-01T03:25:25;3.80;;;2.83;;
20894;SDS011;10607;42.066;24.742;2023-02-01T03:27:53;2.90;;;2.70;;
20894;SDS011;10607;42.066;24.742;2023-02-01T03:30:21;5.67;;;3.20;;
20894;SDS011;10607;42.066;24.742;2023-02-01T03:32:47;3.50;;;2.53;;
20894;SDS011;10607;42.066;24.742;2023-02-01T03:35:28;5.87;;;3.67;;
20894;SDS011;10607;42.066;24.742;2023-02-01T03:37:54;3.37;;;3.07;;
20894;SDS011;10607;42.066;24.742;2023-02-01T03:40:21;5.53;;;3.30;;
20894;SDS011;10607;42.066;24.742;2023-02-01T03:42:48;5.50;;;3.10;;
20894;SDS011;10607;42.066;24.742;2023-02-01T03:47:47;5.47;;;3.50;;
20894;SDS011;10607;42.066;24.742;2023-02-01T03:50:14;4.87;;;3.47;;
20894;SDS011;10607;42.066;24.742;2023-02-01T03:53:22;5.20;;;3.97;;
20894;SDS011;10607;42.066;24.742;2023-02-01T03:55:30;5.57;;;3.83;;
20894;SDS011;10607;42.066;24.742;2023-02-01T03:58:41;5.03;;;3.30;;
20894;SDS011;10607;42.066;24.742;2023-02-01T04:00:45;5.97;;;3.77;;
20894;SDS011;10607;42.066;24.742;2023-02-01T04:03:11;4.20;;;3.70;;
20894;SDS011;10607;42.066;24.742;2023-02-01T04:05:36;6.00;;;3.60;;
20894;SDS011;10607;42.066;24.742;2023-02-01T04:08:01;6.30;;;3.83;;
20894;SDS011;10607;42.066;24.742;2023-02-01T04:10:27;4.70;;;3.67;;
20894;SDS011;10607;42.066;24.742;2023-02-01T04:12:52;5.10;;;3.60;;
20894;SDS011;10607;42.066;24.742;2023-02-01T04:15:18;4.40;;;3.60;;
20894;SDS011;10607;42.066;24.742;2023-02-01T04:17:43;5.50;;;3.30;;
20894;SDS011;10607;42.066;24.742;2023-02-01T04:20:08;3.60;;;3.13;;
20894;SDS011;10607;42.066;24.742;2023-02-01T04:22:34;4.33;;;3.20;;
20894;SDS011;10607;42.066;24.742;2023-02-01T04:24:59;5.77;;;3.70;;
20894;SDS011;10607;42.066;24.742;2023-02-01T04:27:24;3.40;;;3.10;;
20894;SDS011;10607;42.066;24.742;2023-02-01T04:29:50;3.87;;;3.20;;
20894;SDS011;10607;42.066;24.742;2023-02-01T04:32:15;4.10;;;3.67;;
20894;SDS011;10607;42.066;24.742;2023-02-01T04:34:41;4.90;;;3.37;;
20894;SDS011;10607;42.066;24.742;2023-02-01T04:37:06;6.10;;;3.13;;
20894;SDS011;10607;42.066;24.742;2023-02-01T04:39:32;4.73;;;3.13;;
20894;SDS011;10607;42.066;24.742;2023-02-01T04:41:57;5.97;;;3.33;;
20894;SDS011;10607;42.066;24.742;2023-02-01T04:44:22;4.13;;;3.20;;
20894;SDS011;10607;42.066;24.742;2023-02-01T04:46:48;6.97;;;3.13;;
20894;SDS011;10607;42.066;24.742;2023-02-01T04:49:13;5.83;;;3.03;;
20894;SDS011;10607;42.066;24.742;2023-02-01T04:51:39;5.00;;;2.90;;
20894;SDS011;10607;42.066;24.742;2023-02-01T04:54:05;4.20;;;2.73;;
20894;SDS011;10607;42.066;24.742;2023-02-01T04:56:30;2.60;;;2.30;;
20894;SDS011;10607;42.066;24.742;2023-02-01T04:58:55;3.27;;;2.80;;
20894;SDS011;10607;42.066;24.742;2023-02-01T05:01:21;6.17;;;2.80;;
20894;SDS011;10607;42.066;24.742;2023-02-01T05:03:46;4.37;;;3.00;;
20894;SDS011;10607;42.066;24.742;2023-02-01T05:06:11;4.80;;;2.70;;
20894;SDS011;10607;42.066;24.742;2023-02-01T05:08:37;4.03;;;3.00;;
20894;SDS011;10607;42.066;24.742;2023-02-01T05:11:02;3.53;;;2.70;;
20894;SDS011;10607;42.066;24.742;2023-02-01T05:13:28;3.33;;;2.73;;
20894;SDS011;10607;42.066;24.742;2023-02-01T05:16:12;4.27;;;2.60;;
20894;SDS011;10607;42.066;24.742;2023-02-01T05:18:37;4.00;;;2.77;;
20894;SDS011;10607;42.066;24.742;2023-02-01T05:21:02;3.60;;;2.83;;
20894;SDS011;10607;42.066;24.742;2023-02-01T05:23:28;4.53;;;2.60;;
20894;SDS011;10607;42.066;24.742;2023-02-01T05:25:57;5.30;;;2.90;;
20894;SDS011;10607;42.066;24.742;2023-02-01T05:28:22;2.83;;;2.63;;
20894;SDS011;10607;42.066;24.742;2023-02-01T05:30:48;5.70;;;2.67;;
20894;SDS011;10607;42.066;24.742;2023-02-01T05:33:13;4.97;;;3.00;;
20894;SDS011;10607;42.066;24.742;2023-02-01T05:35:38;4.13;;;2.63;;
20894;SDS011;10607;42.066;24.742;2023-02-01T05:38:04;3.37;;;2.63;;
20894;SDS011;10607;42.066;24.742;2023-02-01T05:40:29;3.83;;;2.53;;
20894;SDS011;10607;42.066;24.742;2023-02-01T05:42:54;10.87;;;2.67;;
20894;SDS011;10607;42.066;24.742;2023-02-01T05:45:19;3.63;;;2.30;;
20894;SDS011;10607;42.066;24.742;2023-02-01T05:47:45;2.30;;;2.10;;
20894;SDS011;10607;42.066;24.742;2023-02-01T05:50:10;5.10;;;2.77;;
20894;SDS011;10607;42.066;24.742;2023-02-01T05:52:35;3.77;;;2.47;;
20894;SDS011;10607;42.066;24.742;2023-02-01T05:55:01;3.33;;;2.33;;
20894;SDS011;10607;42.066;24.742;2023-02-01T05:57:26;3.97;;;2.20;;
20894;SDS011;10607;42.066;24.742;2023-02-01T05:59:51;3.30;;;2.10;;
20894;SDS011;10607;42.066;24.742;2023-02-01T06:02:16;2.70;;;2.20;;
20894;SDS011;10607;42.066;24.742;2023-02-01T06:04:42;4.77;;;2.50;;
20894;SDS011;10607;42.066;24.742;2023-02-01T06:07:08;4.60;;;2.10;;
20894;SDS011;10607;42.066;24.742;2023-02-01T06:09:34;3.60;;;2.00;;
20894;SDS011;10607;42.066;24.742;2023-02-01T06:11:59;3.57;;;2.00;;
20894;SDS011;10607;42.066;24.742;2023-02-01T06:14:26;2.90;;;1.60;;
20894;SDS011;10607;42.066;24.742;2023-02-01T06:16:51;3.30;;;2.03;;
20894;SDS011;10607;42.066;24.742;2023-02-01T06:19:16;1.87;;;1.70;;
20894;SDS011;10607;42.066;24.742;2023-02-01T06:21:42;3.57;;;2.03;;
20894;SDS011;10607;42.066;24.742;2023-02-01T06:24:07;1.97;;;1.67;;
20894;SDS011;10607;42.066;24.742;2023-02-01T06:26:33;4.73;;;1.70;;
20894;SDS011;10607;42.066;24.742;2023-02-01T06:28:58;3.50;;;1.70;;
20894;SDS011;10607;42.066;24.742;2023-02-01T06:31:23;6.50;;;1.53;;
20894;SDS011;10607;42.066;24.742;2023-02-01T06:33:50;3.57;;;1.80;;
20894;SDS011;10607;42.066;24.742;2023-02-01T06:36:16;2.13;;;1.57;;
20894;SDS011;10607;42.066;24.742;2023-02-01T06:38:42;2.20;;;1.57;;
20894;SDS011;10607;42.066;24.742;2023-02-01T06:41:08;1.63;;;1.30;;
20894;SDS011;10607;42.066;24.742;2023-02-01T06:43:33;6.97;;;1.70;;
20894;SDS011;10607;42.066;24.742;2023-02-01T06:46:04;1.67;;;1.50;;
20894;SDS011;10607;42.066;24.742;2023-02-01T06:48:29;2.40;;;1.47;;
20894;SDS011;10607;42.066;24.742;2023-02-01T06:50:55;3.00;;;1.70;;
20894;SDS011;10607;42.066;24.742;2023-02-01T06:53:20;2.00;;;1.27;;
20894;SDS011;10607;42.066;24.742;2023-02-01T06:55:56;3.47;;;1.33;;
20894;SDS011;10607;42.066;24.742;2023-02-01T06:58:22;2.93;;;2.63;;
20894;SDS011;10607;42.066;24.742;2023-02-01T07:00:47;2.60;;;1.37;;
20894;SDS011;10607;42.066;24.742;2023-02-01T07:03:13;2.20;;;1.30;;
20894;SDS011;10607;42.066;24.742;2023-02-01T07:05:38;4.73;;;1.50;;
20894;SDS011;10607;42.066;24.742;2023-02-01T07:08:04;3.83;;;1.50;;
20894;SDS011;10607;42.066;24.742;2023-02-01T07:10:29;4.90;;;1.63;;
20894;SDS011;10607;42.066;24.742;2023-02-01T07:12:57;5.00;;;1.57;;
20894;SDS011;10607;42.066;24.742;2023-02-01T07:15:23;1.77;;;1.50;;
20894;SDS011;10607;42.066;24.742;2023-02-01T07:17:48;2.57;;;1.40;;
20894;SDS011;10607;42.066;24.742;2023-02-01T07:20:14;6.73;;;2.70;;
20894;SDS011;10607;42.066;24.742;2023-02-01T07:22:39;1.77;;;1.47;;
20894;SDS011;10607;42.066;24.742;2023-02-01T07:25:05;2.37;;;1.70;;
20894;SDS011;10607;42.066;24.742;2023-02-01T07:27:30;4.17;;;1.90;;
20894;SDS011;10607;42.066;24.742;2023-02-01T07:29:58;4.00;;;2.17;;
20894;SDS011;10607;42.066;24.742;2023-02-01T07:32:26;3.93;;;1.87;;
20894;SDS011;10607;42.066;24.742;2023-02-01T07:34:52;5.73;;;1.87;;
20894;SDS011;10607;42.066;24.742;2023-02-01T07:37:17;3.50;;;1.70;;
20894;SDS011;10607;42.066;24.742;2023-02-01T07:39:43;1.97;;;1.70;;
20894;SDS011;10607;42.066;24.742;2023-02-01T07:59:04;2.73;;;2.20;;
20894;SDS011;10607;42.066;24.742;2023-02-01T08:01:31;1.83;;;1.70;;
20894;SDS011;10607;42.066;24.742;2023-02-01T08:03:57;3.63;;;2.20;;
20894;SDS011;10607;42.066;24.742;2023-02-01T08:06:24;2.13;;;1.90;;
20894;SDS011;10607;42.066;24.742;2023-02-01T08:08:50;2.40;;;2.00;;
20894;SDS011;10607;42.066;24.742;2023-02-01T08:11:16;3.13;;;2.10;;
20894;SDS011;10607;42.066;24.742;2023-02-01T08:13:42;5.00;;;2.30;;
20894;SDS011;10607;42.066;24.742;2023-02-01T08:16:08;3.87;;;2.03;;
20894;SDS011;10607;42.066;24.742;2023-02-01T08:18:35;2.17;;;1.80;;
20894;SDS011;10607;42.066;24.742;2023-02-01T08:21:07;2.87;;;1.87;;
20894;SDS011;10607;42.066;24.742;2023-02-01T08:23:33;5.63;;;1.90;;
20894;SDS011;10607;42.066;24.742;2023-02-01T08:26:10;2.43;;;1.90;;
20894;SDS011;10607;42.066;24.742;2023-02-01T08:28:36;3.50;;;2.17;;
20894;SDS011;10607;42.066;24.742;2023-02-01T08:31:05;3.80;;;1.90;;
20894;SDS011;10607;42.066;24.742;2023-02-01T08:33:30;4.47;;;2.07;;
20894;SDS011;10607;42.066;24.742;2023-02-01T08:35:56;2.40;;;1.87;;
20894;SDS011;10607;42.066;24.742;2023-02-01T08:38:21;2.23;;;1.50;;
20894;SDS011;10607;42.066;24.742;2023-02-01T08:40:46;1.73;;;1.50;;
20894;SDS011;10607;42.066;24.742;2023-02-01T08:43:12;3.50;;;2.00;;
20894;SDS011;10607;42.066;24.742;2023-02-01T08:45:37;5.07;;;1.90;;
20894;SDS011;10607;42.066;24.742;2023-02-01T08:48:02;6.03;;;2.30;;
20894;SDS011;10607;42.066;24.742;2023-02-01T08:50:28;6.23;;;1.87;;
20894;SDS011;10607;42.066;24.742;2023-02-01T08:52:53;5.00;;;2.33;;
20894;SDS011;10607;42.066;24.742;2023-02-01T08:55:18;4.37;;;1.80;;
20894;SDS011;10607;42.066;24.742;2023-02-01T08:57:44;4.93;;;2.03;;
20894;SDS011;10607;42.066;24.742;2023-02-01T09:00:14;3.77;;;1.77;;
20894;SDS011;10607;42.066;24.742;2023-02-01T09:02:40;2.13;;;1.70;;
20894;SDS011;10607;42.066;24.742;2023-02-01T09:05:06;6.27;;;2.10;;
20894;SDS011;10607;42.066;24.742;2023-02-01T09:07:31;4.70;;;1.90;;
20894;SDS011;10607;42.066;24.742;2023-02-01T09:09:57;2.70;;;1.60;;
20894;SDS011;10607;42.066;24.742;2023-02-01T09:12:26;4.43;;;2.10;;
20894;SDS011;10607;42.066;24.742;2023-02-01T09:14:51;2.97;;;2.00;;
20894;SDS011;10607;42.066;24.742;2023-02-01T09:17:16;4.33;;;2.20;;
20894;SDS011;10607;42.066;24.742;2023-02-01T09:19:41;3.73;;;2.10;;
20894;SDS011;10607;42.066;24.742;2023-02-01T09:22:07;3.97;;;2.30;;
20894;SDS011;10607;42.066;24.742;2023-02-01T09:24:32;5.10;;;2.53;;
20894;SDS011;10607;42.066;24.742;2023-02-01T09:26:57;4.47;;;1.97;;
20894;SDS011;10607;42.066;24.742;2023-02-01T09:29:23;5.30;;;1.87;;
20894;SDS011;10607;42.066;24.742;2023-02-01T09:31:48;4.93;;;2.20;;
20894;SDS011;10607;42.066;24.742;2023-02-01T09:34:13;2.70;;;1.40;;
20894;SDS011;10607;42.066;24.742;2023-02-01T09:36:39;3.47;;;1.30;;
20894;SDS011;10607;42.066;24.742;2023-02-01T09:39:04;3.17;;;1.60;;
20894;SDS011;10607;42.066;24.742;2023-02-01T09:46:32;5.80;;;2.10;;
20894;SDS011;10607;42.066;24.742;2023-02-01T09:48:59;7.43;;;2.60;;
20894;SDS011;10607;42.066;24.742;2023-02-01T09:51:31;4.07;;;2.10;;
20894;SDS011;10607;42.066;24.742;2023-02-01T09:54:05;3.83;;;1.60;;
20894;SDS011;10607;42.066;24.742;2023-02-01T09:56:35;2.50;;;1.47;;
20894;SDS011;10607;42.066;24.742;2023-02-01T09:59:09;4.22;;;1.35;;
20894;SDS011;10607;42.066;24.742;2023-02-01T10:01:38;3.93;;;1.50;;
20894;SDS011;10607;42.066;24.742;2023-02-01T10:04:07;9.00;;;1.77;;
20894;SDS011;10607;42.066;24.742;2023-02-01T10:11:39;5.23;;;2.07;;
20894;SDS011;10607;42.066;24.742;2023-02-01T10:22:09;7.13;;;2.15;;
20894;SDS011;10607;42.066;24.742;2023-02-01T10:27:22;5.70;;;2.88;;
20894;SDS011;10607;42.066;24.742;2023-02-01T10:30:21;4.30;;;1.80;;
20894;SDS011;10607;42.066;24.742;2023-02-01T10:32:39;2.47;;;1.40;;
20894;SDS011;10607;42.066;24.742;2023-02-01T10:35:18;8.35;;;1.45;;
20894;SDS011;10607;42.066;24.742;2023-02-01T10:37:44;2.92;;;1.20;;
20894;SDS011;10607;42.066;24.742;2023-02-01T10:42:35;1.83;;;1.10;;
20894;SDS011;10607;42.066;24.742;2023-02-01T10:45:01;4.38;;;1.10;;
20894;SDS011;10607;42.066;24.742;2023-02-01T10:47:27;3.17;;;1.60;;
20894;SDS011;10607;42.066;24.742;2023-02-01T10:49:55;4.63;;;1.38;;
20894;SDS011;10607;42.066;24.742;2023-02-01T10:54:55;2.80;;;1.42;;
20894;SDS011;10607;42.066;24.742;2023-02-01T10:57:23;1.98;;;1.15;;
20894;SDS011;10607;42.066;24.742;2023-02-01T10:59:53;2.97;;;1.38;;
20894;SDS011;10607;42.066;24.742;2023-02-01T11:02:31;5.35;;;1.20;;
20894;SDS011;10607;42.066;24.742;2023-02-01T11:07:26;3.30;;;1.33;;
20894;SDS011;10607;42.066;24.742;2023-02-01T11:09:52;2.73;;;1.20;;
20894;SDS011;10607;42.066;24.742;2023-02-01T11:14:57;2.40;;;1.25;;
20894;SDS011;10607;42.066;24.742;2023-02-01T11:17:24;4.70;;;1.47;;
20894;SDS011;10607;42.066;24.742;2023-02-01T11:20:00;1.83;;;1.17;;
20894;SDS011;10607;42.066;24.742;2023-02-01T11:22:26;2.42;;;1.17;;
20894;SDS011;10607;42.066;24.742;2023-02-01T11:24:53;1.73;;;1.40;;
20894;SDS011;10607;42.066;24.742;2023-02-01T11:27:20;4.18;;;1.20;;
20894;SDS011;10607;42.066;24.742;2023-02-01T11:29:47;4.40;;;1.70;;
20894;SDS011;10607;42.066;24.742;2023-02-01T11:32:15;5.22;;;1.35;;
20894;SDS011;10607;42.066;24.742;2023-02-01T11:34:43;1.40;;;1.20;;
20894;SDS011;10607;42.066;24.742;2023-02-01T11:37:14;5.55;;;1.70;;
20894;SDS011;10607;42.066;24.742;2023-02-01T11:39:41;6.15;;;1.70;;
20894;SDS011;10607;42.066;24.742;2023-02-01T11:42:14;3.25;;;1.30;;
20894;SDS011;10607;42.066;24.742;2023-02-01T11:44:40;2.15;;;1.10;;
20894;SDS011;10607;42.066;24.742;2023-02-01T11:49:50;4.70;;;1.40;;
20894;SDS011;10607;42.066;24.742;2023-02-01T12:23:41;3.37;;;1.10;;
20894;SDS011;10607;42.066;24.742;2023-02-01T12:31:10;2.60;;;1.60;;
20894;SDS011;10607;42.066;24.742;2023-02-01T12:36:25;3.80;;;1.43;;
20894;SDS011;10607;42.066;24.742;2023-02-01T12:43:57;2.47;;;1.40;;
20894;SDS011;10607;42.066;24.742;2023-02-01T12:46:24;2.50;;;1.10;;
20894;SDS011;10607;42.066;24.742;2023-02-01T12:49:38;3.65;;;1.13;;
20894;SDS011;10607;42.066;24.742;2023-02-01T12:51:39;2.58;;;1.23;;
20894;SDS011;10607;42.066;24.742;2023-02-01T12:57:04;3.47;;;1.00;;
20894;SDS011;10607;42.066;24.742;2023-02-01T13:07:30;4.07;;;1.73;;
20894;SDS011;10607;42.066;24.742;2023-02-01T13:12:37;3.87;;;1.43;;
20894;SDS011;10607;42.066;24.742;2023-02-01T13:15:05;1.90;;;1.20;;
20894;SDS011;10607;42.066;24.742;2023-02-01T13:17:34;1.70;;;1.10;;
20894;SDS011;10607;42.066;24.742;2023-02-01T13:22:36;2.50;;;1.50;;
20894;SDS011;10607;42.066;24.742;2023-02-01T13:25:13;3.83;;;1.60;;
20894;SDS011;10607;42.066;24.742;2023-02-01T13:27:39;3.73;;;1.87;;
20894;SDS011;10607;42.066;24.742;2023-02-01T13:35:28;2.30;;;1.43;;
20894;SDS011;10607;42.066;24.742;2023-02-01T13:43:00;1.87;;;1.20;;
20894;SDS011;10607;42.066;24.742;2023-02-01T13:45:28;1.77;;;1.10;;
20894;SDS011;10607;42.066;24.742;2023-02-01T13:47:55;2.00;;;1.20;;
20894;SDS011;10607;42.066;24.742;2023-02-01T13:50:28;3.27;;;1.43;;
20894;SDS011;10607;42.066;24.742;2023-02-01T13:52:59;3.23;;;1.30;;
20894;SDS011;10607;42.066;24.742;2023-02-01T13:55:29;2.23;;;1.00;;
20894;SDS011;10607;42.066;24.742;2023-02-01T13:58:00;5.57;;;1.53;;
20894;SDS011;10607;42.066;24.742;2023-02-01T14:00:28;1.93;;;1.50;;
20894;SDS011;10607;42.066;24.742;2023-02-01T14:08:11;1.90;;;1.20;;
20894;SDS011;10607;42.066;24.742;2023-02-01T14:13:13;2.40;;;1.30;;
20894;SDS011;10607;42.066;24.742;2023-02-01T14:15:39;2.50;;;1.17;;
20894;SDS011;10607;42.066;24.742;2023-02-01T14:21:52;1.30;;;1.07;;
20894;SDS011;10607;42.066;24.742;2023-02-01T14:28:58;3.33;;;1.30;;
20894;SDS011;10607;42.066;24.742;2023-02-01T14:31:39;5.30;;;1.40;;
20894;SDS011;10607;42.066;24.742;2023-02-01T14:34:15;2.67;;;1.60;;
20894;SDS011;10607;42.066;24.742;2023-02-01T14:36:45;1.87;;;1.40;;
20894;SDS011;10607;42.066;24.742;2023-02-01T14:39:25;4.27;;;1.40;;
20894;SDS011;10607;42.066;24.742;2023-02-01T14:41:52;3.17;;;0.93;;
20894;SDS011;10607;42.066;24.742;2023-02-01T14:44:23;2.27;;;1.20;;
20894;SDS011;10607;42.066;24.742;2023-02-01T14:47:05;3.10;;;1.60;;
20894;SDS011;10607;42.066;24.742;2023-02-01T14:49:54;2.33;;;1.60;;
20894;SDS011;10607;42.066;24.742;2023-02-01T14:52:17;2.43;;;1.83;;
20894;SDS011;10607;42.066;24.742;2023-02-01T14:54:45;7.87;;;3.40;;
20894;SDS011;10607;42.066;24.742;2023-02-01T14:57:14;3.67;;;1.80;;
20894;SDS011;10607;42.066;24.742;2023-02-01T14:59:40;3.07;;;2.07;;
20894;SDS011;10607;42.066;24.742;2023-02-01T15:02:15;2.57;;;1.60;;
20894;SDS011;10607;42.066;24.742;2023-02-01T15:04:42;2.60;;;1.60;;
20894;SDS011;10607;42.066;24.742;2023-02-01T15:07:09;2.50;;;1.30;;
20894;SDS011;10607;42.066;24.742;2023-02-01T15:09:42;3.43;;;1.80;;
20894;SDS011;10607;42.066;24.742;2023-02-01T15:17:24;3.63;;;1.70;;
20894;SDS011;10607;42.066;24.742;2023-02-01T15:20:00;3.70;;;2.30;;
20894;SDS011;10607;42.066;24.742;2023-02-01T15:22:26;6.57;;;2.60;;
20894;SDS011;10607;42.066;24.742;2023-02-01T15:24:53;6.23;;;2.53;;
20894;SDS011;10607;42.066;24.742;2023-02-01T15:27:19;6.23;;;2.10;;
20894;SDS011;10607;42.066;24.742;2023-02-01T15:29:44;4.67;;;2.20;;
20894;SDS011;10607;42.066;24.742;2023-02-01T15:32:27;3.50;;;1.80;;
20894;SDS011;10607;42.066;24.742;2023-02-01T15:34:53;4.40;;;2.20;;
20894;SDS011;10607;42.066;24.742;2023-02-01T15:37:20;2.47;;;1.50;;
20894;SDS011;10607;42.066;24.742;2023-02-01T15:40:03;5.27;;;1.50;;
20894;SDS011;10607;42.066;24.742;2023-02-01T15:42:28;3.00;;;1.63;;
20894;SDS011;10607;42.066;24.742;2023-02-01T15:44:54;2.90;;;1.53;;
20894;SDS011;10607;42.066;24.742;2023-02-01T15:47:20;5.83;;;1.93;;
20894;SDS011;10607;42.066;24.742;2023-02-01T15:49:50;2.50;;;1.63;;
20894;SDS011;10607;42.066;24.742;2023-02-01T15:52:20;2.17;;;1.50;;
20894;SDS011;10607;42.066;24.742;2023-02-01T15:54:48;3.80;;;2.37;;
20894;SDS011;10607;42.066;24.742;2023-02-01T15:57:18;4.03;;;1.73;;
20894;SDS011;10607;42.066;24.742;2023-02-01T15:59:44;3.03;;;2.00;;
20894;SDS011;10607;42.066;24.742;2023-02-01T16:08:34;2.17;;;1.40;;
20894;SDS011;10607;42.066;24.742;2023-02-01T16:10:42;2.30;;;1.47;;
20894;SDS011;10607;42.066;24.742;2023-02-01T16:13:08;2.60;;;1.40;;
20894;SDS011;10607;42.066;24.742;2023-02-01T16:15:33;1.50;;;1.40;;
20894;SDS011;10607;42.066;24.742;2023-02-01T16:17:58;2.57;;;1.27;;
20894;SDS011;10607;42.066;24.742;2023-02-01T16:20:24;2.67;;;1.40;;
20894;SDS011;10607;42.066;24.742;2023-02-01T16:22:49;3.10;;;1.70;;
20894;SDS011;10607;42.066;24.742;2023-02-01T16:25:14;2.50;;;1.67;;
20894;SDS011;10607;42.066;24.742;2023-02-01T16:27:40;5.80;;;1.47;;
20894;SDS011;10607;42.066;24.742;2023-02-01T16:30:05;1.93;;;1.40;;
20894;SDS011;10607;42.066;24.742;2023-02-01T16:32:34;1.97;;;1.37;;
20894;SDS011;10607;42.066;24.742;2023-02-01T16:35:03;3.73;;;1.40;;
20894;SDS011;10607;42.066;24.742;2023-02-01T16:37:28;2.53;;;1.33;;
20894;SDS011;10607;42.066;24.742;2023-02-01T16:39:57;2.27;;;1.13;;
20894;SDS011;10607;42.066;24.742;2023-02-01T16:42:22;2.40;;;1.70;;
20894;SDS011;10607;42.066;24.742;2023-02-01T16:44:47;1.70;;;1.30;;
20894;SDS011;10607;42.066;24.742;2023-02-01T16:47:17;3.23;;;1.60;;
20894;SDS011;10607;42.066;24.742;2023-02-01T16:49:43;3.00;;;1.70;;
20894;SDS011;10607;42.066;24.742;2023-02-01T16:52:18;3.93;;;1.50;;
20894;SDS011;10607;42.066;24.742;2023-02-01T16:54:44;3.57;;;1.43;;
20894;SDS011;10607;42.066;24.742;2023-02-01T16:57:16;4.70;;;1.67;;
20894;SDS011;10607;42.066;24.742;2023-02-01T16:59:42;2.10;;;1.60;;
20894;SDS011;10607;42.066;24.742;2023-02-01T17:02:11;2.20;;;1.40;;
20894;SDS011;10607;42.066;24.742;2023-02-01T17:04:37;3.00;;;1.60;;
20894;SDS011;10607;42.066;24.742;2023-02-01T17:07:03;4.17;;;1.90;;
20894;SDS011;10607;42.066;24.742;2023-02-01T17:09:34;4.00;;;1.80;;
20894;SDS011;10607;42.066;24.742;2023-02-01T17:12:00;3.80;;;2.00;;
20894;SDS011;10607;42.066;24.742;2023-02-01T17:14:25;4.47;;;2.10;;
20894;SDS011;10607;42.066;24.742;2023-02-01T17:16:51;3.43;;;1.90;;
20894;SDS011;10607;42.066;24.742;2023-02-01T17:19:17;2.87;;;2.03;;
20894;SDS011;10607;42.066;24.742;2023-02-01T17:21:47;2.80;;;1.60;;
20894;SDS011;10607;42.066;24.742;2023-02-01T17:24:15;3.63;;;2.10;;
20894;SDS011;10607;42.066;24.742;2023-02-01T17:26:41;3.43;;;1.80;;
20894;SDS011;10607;42.066;24.742;2023-02-01T17:29:06;4.97;;;2.07;;
20894;SDS011;10607;42.066;24.742;2023-02-01T17:31:32;3.93;;;2.07;;
20894;SDS011;10607;42.066;24.742;2023-02-01T17:33:58;4.03;;;2.30;;
20894;SDS011;10607;42.066;24.742;2023-02-01T17:36:23;4.77;;;2.20;;